sensor_id;sensor_type;location;lat;lon;timestamp;P1;durP1;ratioP1;P2;durP2;ratioP2
57441;SDS011;43284;47.042;15.498;2023-07-13T00:01:27;1.92;;;0.90;;
57441;SDS011;43284;47.042;15.498;2023-07-13T00:03:53;1.77;;;1.02;;
57441;SDS011;43284;47.042;15.498;2023-07-13T00:06:19;3.50;;;1.40;;
57441;SDS011;43284;47.042;15.498;2023-07-13T00:08:45;1.35;;;1.02;;
57441;SDS011;43284;47.042;15.498;2023-07-13T00:11:12;2.47;;;0.80;;
57441;SDS011;43284;47.042;15.498;2023-07-13T00:13:39;4.00;;;1.10;;
57441;SDS011;43284;47.042;15.498;2023-07-13T00:16:05;2.42;;;1.02;;
57441;SDS011;43284;47.042;15.498;2023-07-13T00:18:31;2.05;;;1.25;;
57441;SDS011;43284;47.042;15.498;2023-07-13T00:20:57;2.58;;;0.98;;
57441;SDS011;43284;47.042;15.498;2023-07-13T00:23:33;1.60;;;0.88;;
57441;SDS011;43284;47.042;15.498;2023-07-13T00:26:03;1.90;;;0.93;;
57441;SDS011;43284;47.042;15.498;2023-07-13T00:28:30;2.47;;;0.88;;
57441;SDS011;43284;47.042;15.498;2023-07-13T00:30:56;1.30;;;0.90;;
57441;SDS011;43284;47.042;15.498;2023-07-13T00:33:22;3.92;;;0.85;;
57441;SDS011;43284;47.042;15.498;2023-07-13T00:35:48;1.88;;;1.20;;
57441;SDS011;43284;47.042;15.498;2023-07-13T00:38:14;3.63;;;1.02;;
57441;SDS011;43284;47.042;15.498;2023-07-13T00:40:40;1.75;;;0.90;;
57441;SDS011;43284;47.042;15.498;2023-07-13T00:43:21;2.80;;;0.95;;
57441;SDS011;43284;47.042;15.498;2023-07-13T00:48:16;1.20;;;0.85;;
57441;SDS011;43284;47.042;15.498;2023-07-13T00:50:46;4.70;;;1.00;;
57441;SDS011;43284;47.042;15.498;2023-07-13T00:53:15;1.92;;;1.15;;
57441;SDS011;43284;47.042;15.498;2023-07-13T00:55:41;1.35;;;0.77;;
57441;SDS011;43284;47.042;15.498;2023-07-13T00:58:07;3.47;;;1.27;;
57441;SDS011;43284;47.042;15.498;2023-07-13T01:00:35;1.15;;;0.82;;
57441;SDS011;43284;47.042;15.498;2023-07-13T01:03:03;1.02;;;0.90;;
57441;SDS011;43284;47.042;15.498;2023-07-13T01:05:30;2.88;;;0.90;;
57441;SDS011;43284;47.042;15.498;2023-07-13T01:07:57;1.73;;;1.00;;
57441;SDS011;43284;47.042;15.498;2023-07-13T01:10:36;3.10;;;0.70;;
57441;SDS011;43284;47.042;15.498;2023-07-13T01:13:06;1.48;;;1.10;;
57441;SDS011;43284;47.042;15.498;2023-07-13T01:15:33;2.60;;;0.88;;
57441;SDS011;43284;47.042;15.498;2023-07-13T01:18:11;5.18;;;1.00;;
57441;SDS011;43284;47.042;15.498;2023-07-13T01:20:46;2.90;;;1.00;;
57441;SDS011;43284;47.042;15.498;2023-07-13T01:23:15;2.00;;;0.90;;
57441;SDS011;43284;47.042;15.498;2023-07-13T01:25:41;1.60;;;1.08;;
57441;SDS011;43284;47.042;15.498;2023-07-13T01:28:07;1.20;;;0.90;;
57441;SDS011;43284;47.042;15.498;2023-07-13T01:30:36;1.05;;;0.80;;
57441;SDS011;43284;47.042;15.498;2023-07-13T01:33:05;2.97;;;1.05;;
57441;SDS011;43284;47.042;15.498;2023-07-13T01:35:32;1.17;;;1.05;;
57441;SDS011;43284;47.042;15.498;2023-07-13T01:37:58;3.75;;;0.80;;
57441;SDS011;43284;47.042;15.498;2023-07-13T01:40:26;3.95;;;1.35;;
57441;SDS011;43284;47.042;15.498;2023-07-13T01:42:52;3.10;;;1.20;;
57441;SDS011;43284;47.042;15.498;2023-07-13T01:45:17;2.90;;;1.00;;
57441;SDS011;43284;47.042;15.498;2023-07-13T01:47:43;3.03;;;1.30;;
57441;SDS011;43284;47.042;15.498;2023-07-13T01:50:09;6.20;;;2.35;;
57441;SDS011;43284;47.042;15.498;2023-07-13T01:52:35;5.28;;;2.60;;
57441;SDS011;43284;47.042;15.498;2023-07-13T01:55:00;7.15;;;1.90;;
57441;SDS011;43284;47.042;15.498;2023-07-13T01:57:27;6.60;;;1.85;;
57441;SDS011;43284;47.042;15.498;2023-07-13T01:59:53;6.82;;;1.95;;
57441;SDS011;43284;47.042;15.498;2023-07-13T02:02:18;3.92;;;1.50;;
57441;SDS011;43284;47.042;15.498;2023-07-13T02:04:44;4.95;;;1.75;;
57441;SDS011;43284;47.042;15.498;2023-07-13T02:07:10;3.92;;;1.70;;
57441;SDS011;43284;47.042;15.498;2023-07-13T02:09:35;3.65;;;1.85;;
57441;SDS011;43284;47.042;15.498;2023-07-13T02:12:01;5.70;;;1.77;;
57441;SDS011;43284;47.042;15.498;2023-07-13T02:14:27;3.92;;;1.65;;
57441;SDS011;43284;47.042;15.498;2023-07-13T02:16:52;11.48;;;2.35;;
57441;SDS011;43284;47.042;15.498;2023-07-13T02:19:18;3.28;;;1.83;;
57441;SDS011;43284;47.042;15.498;2023-07-13T02:21:43;6.05;;;2.38;;
57441;SDS011;43284;47.042;15.498;2023-07-13T02:24:09;4.82;;;1.48;;
57441;SDS011;43284;47.042;15.498;2023-07-13T02:26:35;3.78;;;1.75;;
57441;SDS011;43284;47.042;15.498;2023-07-13T02:29:01;5.38;;;1.83;;
57441;SDS011;43284;47.042;15.498;2023-07-13T02:31:26;8.68;;;2.50;;
57441;SDS011;43284;47.042;15.498;2023-07-13T02:33:52;7.93;;;1.80;;
57441;SDS011;43284;47.042;15.498;2023-07-13T02:36:17;5.32;;;1.60;;
57441;SDS011;43284;47.042;15.498;2023-07-13T02:38:43;4.05;;;2.03;;
57441;SDS011;43284;47.042;15.498;2023-07-13T02:41:09;4.93;;;1.65;;
57441;SDS011;43284;47.042;15.498;2023-07-13T02:43:35;4.65;;;1.70;;
57441;SDS011;43284;47.042;15.498;2023-07-13T02:46:02;6.22;;;1.63;;
57441;SDS011;43284;47.042;15.498;2023-07-13T02:48:38;6.22;;;1.55;;
57441;SDS011;43284;47.042;15.498;2023-07-13T02:51:05;4.85;;;2.45;;
57441;SDS011;43284;47.042;15.498;2023-07-13T02:53:30;2.20;;;1.60;;
57441;SDS011;43284;47.042;15.498;2023-07-13T02:55:56;4.70;;;1.40;;
57441;SDS011;43284;47.042;15.498;2023-07-13T02:58:22;2.28;;;1.25;;
57441;SDS011;43284;47.042;15.498;2023-07-13T03:00:48;3.03;;;1.52;;
57441;SDS011;43284;47.042;15.498;2023-07-13T03:03:15;2.15;;;1.40;;
57441;SDS011;43284;47.042;15.498;2023-07-13T03:05:41;5.25;;;2.00;;
57441;SDS011;43284;47.042;15.498;2023-07-13T03:08:09;4.10;;;1.30;;
57441;SDS011;43284;47.042;15.498;2023-07-13T03:10:35;6.25;;;1.60;;
57441;SDS011;43284;47.042;15.498;2023-07-13T03:13:02;3.95;;;1.90;;
57441;SDS011;43284;47.042;15.498;2023-07-13T03:15:28;8.65;;;2.28;;
57441;SDS011;43284;47.042;15.498;2023-07-13T03:17:53;3.15;;;1.90;;
57441;SDS011;43284;47.042;15.498;2023-07-13T03:20:19;5.97;;;2.03;;
57441;SDS011;43284;47.042;15.498;2023-07-13T03:22:44;6.53;;;1.88;;
57441;SDS011;43284;47.042;15.498;2023-07-13T03:25:10;4.72;;;2.28;;
57441;SDS011;43284;47.042;15.498;2023-07-13T03:27:37;8.10;;;2.50;;
57441;SDS011;43284;47.042;15.498;2023-07-13T03:30:03;4.57;;;2.53;;
57441;SDS011;43284;47.042;15.498;2023-07-13T03:32:30;4.95;;;2.35;;
57441;SDS011;43284;47.042;15.498;2023-07-13T03:34:55;3.45;;;2.28;;
57441;SDS011;43284;47.042;15.498;2023-07-13T03:37:21;4.35;;;2.20;;
57441;SDS011;43284;47.042;15.498;2023-07-13T03:39:46;6.55;;;2.65;;
57441;SDS011;43284;47.042;15.498;2023-07-13T03:42:12;3.42;;;2.33;;
57441;SDS011;43284;47.042;15.498;2023-07-13T03:44:38;7.47;;;2.45;;
57441;SDS011;43284;47.042;15.498;2023-07-13T03:47:05;6.28;;;2.47;;
57441;SDS011;43284;47.042;15.498;2023-07-13T03:49:31;4.65;;;2.28;;
57441;SDS011;43284;47.042;15.498;2023-07-13T03:51:57;3.45;;;2.00;;
57441;SDS011;43284;47.042;15.498;2023-07-13T03:54:22;9.05;;;2.60;;
57441;SDS011;43284;47.042;15.498;2023-07-13T03:56:48;3.92;;;1.90;;
57441;SDS011;43284;47.042;15.498;2023-07-13T03:59:13;2.90;;;1.80;;
57441;SDS011;43284;47.042;15.498;2023-07-13T04:01:39;5.05;;;2.28;;
57441;SDS011;43284;47.042;15.498;2023-07-13T04:04:05;2.65;;;2.08;;
57441;SDS011;43284;47.042;15.498;2023-07-13T04:06:31;4.95;;;1.90;;
57441;SDS011;43284;47.042;15.498;2023-07-13T04:08:58;6.03;;;2.33;;
57441;SDS011;43284;47.042;15.498;2023-07-13T04:11:27;6.20;;;2.10;;
57441;SDS011;43284;47.042;15.498;2023-07-13T04:13:54;8.88;;;2.80;;
57441;SDS011;43284;47.042;15.498;2023-07-13T04:16:19;3.20;;;2.47;;
57441;SDS011;43284;47.042;15.498;2023-07-13T04:18:46;7.25;;;2.63;;
57441;SDS011;43284;47.042;15.498;2023-07-13T04:21:12;5.90;;;2.05;;
57441;SDS011;43284;47.042;15.498;2023-07-13T04:23:39;4.20;;;2.65;;
57441;SDS011;43284;47.042;15.498;2023-07-13T04:26:05;6.75;;;2.83;;
57441;SDS011;43284;47.042;15.498;2023-07-13T04:28:31;6.43;;;2.50;;
57441;SDS011;43284;47.042;15.498;2023-07-13T04:30:58;8.52;;;3.00;;
57441;SDS011;43284;47.042;15.498;2023-07-13T04:33:23;4.22;;;2.13;;
57441;SDS011;43284;47.042;15.498;2023-07-13T04:35:50;5.95;;;2.08;;
57441;SDS011;43284;47.042;15.498;2023-07-13T04:38:21;5.95;;;2.42;;
57441;SDS011;43284;47.042;15.498;2023-07-13T04:40:54;7.13;;;2.63;;
57441;SDS011;43284;47.042;15.498;2023-07-13T04:43:21;4.65;;;2.72;;
57441;SDS011;43284;47.042;15.498;2023-07-13T04:45:46;10.32;;;2.92;;
57441;SDS011;43284;47.042;15.498;2023-07-13T04:48:11;6.60;;;2.55;;
57441;SDS011;43284;47.042;15.498;2023-07-13T04:50:37;4.18;;;2.42;;
57441;SDS011;43284;47.042;15.498;2023-07-13T04:53:03;6.85;;;2.25;;
57441;SDS011;43284;47.042;15.498;2023-07-13T04:55:29;4.68;;;2.38;;
57441;SDS011;43284;47.042;15.498;2023-07-13T04:57:56;5.20;;;2.50;;
57441;SDS011;43284;47.042;15.498;2023-07-13T05:00:23;4.00;;;2.42;;
57441;SDS011;43284;47.042;15.498;2023-07-13T05:02:50;3.80;;;2.15;;
57441;SDS011;43284;47.042;15.498;2023-07-13T05:05:16;3.08;;;2.10;;
57441;SDS011;43284;47.042;15.498;2023-07-13T05:07:41;7.40;;;2.20;;
57441;SDS011;43284;47.042;15.498;2023-07-13T05:10:07;5.32;;;2.58;;
57441;SDS011;43284;47.042;15.498;2023-07-13T05:12:33;4.85;;;2.03;;
57441;SDS011;43284;47.042;15.498;2023-07-13T05:14:58;4.63;;;2.55;;
57441;SDS011;43284;47.042;15.498;2023-07-13T05:17:24;7.75;;;3.00;;
57441;SDS011;43284;47.042;15.498;2023-07-13T05:19:49;7.40;;;2.75;;
57441;SDS011;43284;47.042;15.498;2023-07-13T05:22:15;3.47;;;2.30;;
57441;SDS011;43284;47.042;15.498;2023-07-13T05:24:40;5.05;;;2.53;;
57441;SDS011;43284;47.042;15.498;2023-07-13T05:27:06;6.50;;;2.58;;
57441;SDS011;43284;47.042;15.498;2023-07-13T05:29:31;3.72;;;2.60;;
57441;SDS011;43284;47.042;15.498;2023-07-13T05:31:57;4.78;;;2.50;;
57441;SDS011;43284;47.042;15.498;2023-07-13T05:34:22;4.65;;;1.98;;
57441;SDS011;43284;47.042;15.498;2023-07-13T05:36:48;4.63;;;2.28;;
57441;SDS011;43284;47.042;15.498;2023-07-13T05:39:14;4.88;;;2.33;;
57441;SDS011;43284;47.042;15.498;2023-07-13T05:41:40;3.20;;;2.20;;
57441;SDS011;43284;47.042;15.498;2023-07-13T05:44:05;5.75;;;2.10;;
57441;SDS011;43284;47.042;15.498;2023-07-13T05:46:31;3.28;;;2.08;;
57441;SDS011;43284;47.042;15.498;2023-07-13T05:48:56;5.93;;;2.30;;
57441;SDS011;43284;47.042;15.498;2023-07-13T05:51:22;3.70;;;2.17;;
57441;SDS011;43284;47.042;15.498;2023-07-13T05:53:47;3.03;;;2.00;;
57441;SDS011;43284;47.042;15.498;2023-07-13T05:56:13;5.43;;;2.30;;
57441;SDS011;43284;47.042;15.498;2023-07-13T05:58:38;3.72;;;2.08;;
57441;SDS011;43284;47.042;15.498;2023-07-13T06:01:05;3.92;;;1.92;;
57441;SDS011;43284;47.042;15.498;2023-07-13T06:03:32;1.60;;;1.27;;
57441;SDS011;43284;47.042;15.498;2023-07-13T06:05:58;3.65;;;1.60;;
57441;SDS011;43284;47.042;15.498;2023-07-13T06:08:25;3.50;;;1.80;;
57441;SDS011;43284;47.042;15.498;2023-07-13T06:10:51;2.88;;;1.60;;
57441;SDS011;43284;47.042;15.498;2023-07-13T06:13:17;3.67;;;1.90;;
57441;SDS011;43284;47.042;15.498;2023-07-13T06:15:47;4.13;;;1.92;;
57441;SDS011;43284;47.042;15.498;2023-07-13T06:18:15;4.43;;;1.58;;
57441;SDS011;43284;47.042;15.498;2023-07-13T06:20:41;2.33;;;1.40;;
57441;SDS011;43284;47.042;15.498;2023-07-13T06:23:06;2.17;;;1.38;;
57441;SDS011;43284;47.042;15.498;2023-07-13T06:25:32;2.22;;;1.23;;
57441;SDS011;43284;47.042;15.498;2023-07-13T06:27:57;1.75;;;1.30;;
57441;SDS011;43284;47.042;15.498;2023-07-13T06:30:23;2.58;;;1.20;;
57441;SDS011;43284;47.042;15.498;2023-07-13T06:32:48;5.00;;;1.52;;
57441;SDS011;43284;47.042;15.498;2023-07-13T06:35:14;4.65;;;1.83;;
57441;SDS011;43284;47.042;15.498;2023-07-13T06:37:40;2.72;;;1.30;;
57441;SDS011;43284;47.042;15.498;2023-07-13T06:40:05;2.47;;;1.52;;
57441;SDS011;43284;47.042;15.498;2023-07-13T06:42:32;3.53;;;1.30;;
57441;SDS011;43284;47.042;15.498;2023-07-13T06:44:57;3.80;;;1.40;;
57441;SDS011;43284;47.042;15.498;2023-07-13T06:47:23;2.30;;;1.40;;
57441;SDS011;43284;47.042;15.498;2023-07-13T06:49:48;3.10;;;1.30;;
57441;SDS011;43284;47.042;15.498;2023-07-13T06:52:14;2.20;;;1.25;;
57441;SDS011;43284;47.042;15.498;2023-07-13T06:54:39;3.78;;;1.88;;
57441;SDS011;43284;47.042;15.498;2023-07-13T06:57:05;3.97;;;1.50;;
57441;SDS011;43284;47.042;15.498;2023-07-13T06:59:30;2.65;;;1.15;;
57441;SDS011;43284;47.042;15.498;2023-07-13T07:01:56;3.10;;;1.20;;
57441;SDS011;43284;47.042;15.498;2023-07-13T07:04:21;2.85;;;1.35;;
57441;SDS011;43284;47.042;15.498;2023-07-13T07:06:47;4.93;;;1.33;;
57441;SDS011;43284;47.042;15.498;2023-07-13T07:09:12;3.55;;;1.55;;
57441;SDS011;43284;47.042;15.498;2023-07-13T07:11:38;3.75;;;1.23;;
57441;SDS011;43284;47.042;15.498;2023-07-13T07:14:04;2.25;;;1.23;;
57441;SDS011;43284;47.042;15.498;2023-07-13T07:16:30;3.80;;;1.70;;
57441;SDS011;43284;47.042;15.498;2023-07-13T07:18:55;3.38;;;1.35;;
57441;SDS011;43284;47.042;15.498;2023-07-13T07:21:21;1.85;;;1.50;;
57441;SDS011;43284;47.042;15.498;2023-07-13T07:23:48;2.58;;;2.03;;
57441;SDS011;43284;47.042;15.498;2023-07-13T07:26:14;6.10;;;1.30;;
57441;SDS011;43284;47.042;15.498;2023-07-13T07:28:40;1.65;;;1.13;;
57441;SDS011;43284;47.042;15.498;2023-07-13T07:31:05;3.25;;;1.10;;
57441;SDS011;43284;47.042;15.498;2023-07-13T07:33:32;2.58;;;1.05;;
57441;SDS011;43284;47.042;15.498;2023-07-13T07:35:58;2.00;;;1.10;;
57441;SDS011;43284;47.042;15.498;2023-07-13T07:38:24;1.80;;;1.20;;
57441;SDS011;43284;47.042;15.498;2023-07-13T07:40:49;3.50;;;1.00;;
57441;SDS011;43284;47.042;15.498;2023-07-13T07:43:15;1.45;;;0.90;;
57441;SDS011;43284;47.042;15.498;2023-07-13T07:45:40;1.63;;;1.10;;
57441;SDS011;43284;47.042;15.498;2023-07-13T07:48:06;2.50;;;1.10;;
57441;SDS011;43284;47.042;15.498;2023-07-13T07:50:32;1.23;;;0.90;;
57441;SDS011;43284;47.042;15.498;2023-07-13T07:52:58;4.15;;;1.00;;
57441;SDS011;43284;47.042;15.498;2023-07-13T07:55:24;1.17;;;0.80;;
57441;SDS011;43284;47.042;15.498;2023-07-13T07:57:53;6.07;;;1.25;;
57441;SDS011;43284;47.042;15.498;2023-07-13T08:00:19;1.67;;;1.08;;
57441;SDS011;43284;47.042;15.498;2023-07-13T08:02:45;1.15;;;0.80;;
57441;SDS011;43284;47.042;15.498;2023-07-13T08:05:11;0.60;;;0.60;;
57441;SDS011;43284;47.042;15.498;2023-07-13T08:07:37;1.00;;;0.70;;
57441;SDS011;43284;47.042;15.498;2023-07-13T08:10:04;1.33;;;0.90;;
57441;SDS011;43284;47.042;15.498;2023-07-13T08:12:34;1.55;;;0.63;;
57441;SDS011;43284;47.042;15.498;2023-07-13T08:15:01;1.13;;;0.80;;
57441;SDS011;43284;47.042;15.498;2023-07-13T08:17:26;1.00;;;0.57;;
57441;SDS011;43284;47.042;15.498;2023-07-13T08:19:52;1.85;;;0.82;;
57441;SDS011;43284;47.042;15.498;2023-07-13T08:22:18;1.00;;;0.93;;
57441;SDS011;43284;47.042;15.498;2023-07-13T08:24:43;3.70;;;0.88;;
57441;SDS011;43284;47.042;15.498;2023-07-13T08:27:10;2.60;;;0.90;;
57441;SDS011;43284;47.042;15.498;2023-07-13T08:29:39;0.80;;;0.68;;
57441;SDS011;43284;47.042;15.498;2023-07-13T08:32:05;1.40;;;0.70;;
57441;SDS011;43284;47.042;15.498;2023-07-13T08:34:34;0.93;;;0.63;;
57441;SDS011;43284;47.042;15.498;2023-07-13T08:37:00;0.75;;;0.75;;
57441;SDS011;43284;47.042;15.498;2023-07-13T08:39:26;0.95;;;0.85;;
57441;SDS011;43284;47.042;15.498;2023-07-13T08:41:55;1.52;;;0.85;;
57441;SDS011;43284;47.042;15.498;2023-07-13T08:47:01;2.30;;;1.17;;
57441;SDS011;43284;47.042;15.498;2023-07-13T08:49:27;2.28;;;0.80;;
57441;SDS011;43284;47.042;15.498;2023-07-13T08:51:55;4.15;;;1.33;;
57441;SDS011;43284;47.042;15.498;2023-07-13T08:54:28;7.75;;;1.00;;
57441;SDS011;43284;47.042;15.498;2023-07-13T08:57:00;1.17;;;0.90;;
57441;SDS011;43284;47.042;15.498;2023-07-13T08:59:39;2.28;;;1.30;;
57441;SDS011;43284;47.042;15.498;2023-07-13T09:04:35;1.83;;;1.00;;
57441;SDS011;43284;47.042;15.498;2023-07-13T09:12:23;2.90;;;0.77;;
57441;SDS011;43284;47.042;15.498;2023-07-13T09:14:53;3.35;;;1.15;;
57441;SDS011;43284;47.042;15.498;2023-07-13T09:17:27;3.78;;;0.90;;
57441;SDS011;43284;47.042;15.498;2023-07-13T09:20:18;1.85;;;1.15;;
57441;SDS011;43284;47.042;15.498;2023-07-13T09:22:48;1.00;;;0.77;;
57441;SDS011;43284;47.042;15.498;2023-07-13T09:25:26;3.50;;;1.17;;
57441;SDS011;43284;47.042;15.498;2023-07-13T09:27:57;1.55;;;1.08;;
57441;SDS011;43284;47.042;15.498;2023-07-13T09:30:30;1.83;;;0.93;;
57441;SDS011;43284;47.042;15.498;2023-07-13T09:33:03;0.93;;;0.80;;
57441;SDS011;43284;47.042;15.498;2023-07-13T09:35:29;3.35;;;0.70;;
57441;SDS011;43284;47.042;15.498;2023-07-13T09:38:01;1.10;;;0.75;;
57441;SDS011;43284;47.042;15.498;2023-07-13T09:40:39;2.50;;;0.90;;
57441;SDS011;43284;47.042;15.498;2023-07-13T09:43:13;1.20;;;0.75;;
57441;SDS011;43284;47.042;15.498;2023-07-13T09:45:40;2.30;;;1.17;;
57441;SDS011;43284;47.042;15.498;2023-07-13T09:48:11;1.40;;;0.90;;
57441;SDS011;43284;47.042;15.498;2023-07-13T09:50:38;0.70;;;0.70;;
57441;SDS011;43284;47.042;15.498;2023-07-13T09:53:09;1.05;;;0.80;;
57441;SDS011;43284;47.042;15.498;2023-07-13T09:55:41;1.35;;;1.00;;
57441;SDS011;43284;47.042;15.498;2023-07-13T09:58:10;1.70;;;0.93;;
57441;SDS011;43284;47.042;15.498;2023-07-13T10:00:38;0.98;;;0.90;;
57441;SDS011;43284;47.042;15.498;2023-07-13T10:03:09;2.13;;;0.77;;
57441;SDS011;43284;47.042;15.498;2023-07-13T10:05:46;0.80;;;0.70;;
57441;SDS011;43284;47.042;15.498;2023-07-13T10:08:25;1.02;;;0.75;;
57441;SDS011;43284;47.042;15.498;2023-07-13T10:13:54;0.95;;;0.70;;
57441;SDS011;43284;47.042;15.498;2023-07-13T10:16:24;1.25;;;0.82;;
57441;SDS011;43284;47.042;15.498;2023-07-13T10:18:57;1.42;;;0.88;;
57441;SDS011;43284;47.042;15.498;2023-07-13T10:21:27;0.98;;;0.88;;
57441;SDS011;43284;47.042;15.498;2023-07-13T10:24:10;2.60;;;0.98;;
57441;SDS011;43284;47.042;15.498;2023-07-13T10:29:11;2.05;;;0.93;;
57441;SDS011;43284;47.042;15.498;2023-07-13T10:31:40;1.60;;;1.20;;
57441;SDS011;43284;47.042;15.498;2023-07-13T10:34:10;1.10;;;0.98;;
57441;SDS011;43284;47.042;15.498;2023-07-13T10:36:45;1.42;;;0.90;;
57441;SDS011;43284;47.042;15.498;2023-07-13T10:39:23;0.98;;;0.85;;
57441;SDS011;43284;47.042;15.498;2023-07-13T10:41:53;1.33;;;1.13;;
57441;SDS011;43284;47.042;15.498;2023-07-13T10:44:26;1.35;;;1.00;;
57441;SDS011;43284;47.042;15.498;2023-07-13T10:46:57;1.48;;;0.90;;
57441;SDS011;43284;47.042;15.498;2023-07-13T10:49:26;1.90;;;0.90;;
57441;SDS011;43284;47.042;15.498;2023-07-13T10:51:54;1.67;;;0.90;;
57441;SDS011;43284;47.042;15.498;2023-07-13T10:54:20;1.20;;;1.10;;
57441;SDS011;43284;47.042;15.498;2023-07-13T10:57:07;4.47;;;1.10;;
57441;SDS011;43284;47.042;15.498;2023-07-13T10:59:41;2.03;;;1.00;;
57441;SDS011;43284;47.042;15.498;2023-07-13T11:04:48;2.15;;;1.02;;
57441;SDS011;43284;47.042;15.498;2023-07-13T11:07:19;1.08;;;0.98;;
57441;SDS011;43284;47.042;15.498;2023-07-13T11:09:55;1.77;;;1.00;;
57441;SDS011;43284;47.042;15.498;2023-07-13T11:17:36;1.67;;;0.95;;
57441;SDS011;43284;47.042;15.498;2023-07-13T11:22:42;1.27;;;0.98;;
57441;SDS011;43284;47.042;15.498;2023-07-13T11:25:31;1.83;;;1.10;;
57441;SDS011;43284;47.042;15.498;2023-07-13T11:28:05;1.20;;;1.00;;
57441;SDS011;43284;47.042;15.498;2023-07-13T11:30:40;1.52;;;1.10;;
57441;SDS011;43284;47.042;15.498;2023-07-13T11:33:24;1.20;;;1.10;;
57441;SDS011;43284;47.042;15.498;2023-07-13T11:38:36;2.30;;;0.95;;
57441;SDS011;43284;47.042;15.498;2023-07-13T11:41:26;1.80;;;1.08;;
57441;SDS011;43284;47.042;15.498;2023-07-13T11:44:18;2.33;;;0.88;;
57441;SDS011;43284;47.042;15.498;2023-07-13T11:46:58;1.48;;;1.00;;
57441;SDS011;43284;47.042;15.498;2023-07-13T11:49:29;1.10;;;0.93;;
57441;SDS011;43284;47.042;15.498;2023-07-13T11:51:56;1.20;;;1.10;;
57441;SDS011;43284;47.042;15.498;2023-07-13T11:54:33;2.20;;;1.17;;
57441;SDS011;43284;47.042;15.498;2023-07-13T11:59:58;2.67;;;1.38;;
57441;SDS011;43284;47.042;15.498;2023-07-13T12:02:32;11.30;;;1.20;;
57441;SDS011;43284;47.042;15.498;2023-07-13T12:05:01;3.33;;;1.30;;
57441;SDS011;43284;47.042;15.498;2023-07-13T12:07:29;1.00;;;0.90;;
57441;SDS011;43284;47.042;15.498;2023-07-13T12:10:00;2.58;;;1.00;;
57441;SDS011;43284;47.042;15.498;2023-07-13T12:12:36;1.20;;;1.10;;
57441;SDS011;43284;47.042;15.498;2023-07-13T12:15:06;2.72;;;1.10;;
57441;SDS011;43284;47.042;15.498;2023-07-13T12:17:34;2.92;;;0.80;;
57441;SDS011;43284;47.042;15.498;2023-07-13T12:20:00;3.35;;;1.30;;
57441;SDS011;43284;47.042;15.498;2023-07-13T12:22:33;2.17;;;1.33;;
57441;SDS011;43284;47.042;15.498;2023-07-13T12:24:59;2.03;;;1.15;;
57441;SDS011;43284;47.042;15.498;2023-07-13T12:27:26;1.92;;;1.20;;
57441;SDS011;43284;47.042;15.498;2023-07-13T12:30:04;1.42;;;1.17;;
57441;SDS011;43284;47.042;15.498;2023-07-13T12:32:56;1.92;;;1.38;;
57441;SDS011;43284;47.042;15.498;2023-07-13T12:35:28;2.03;;;1.20;;
57441;SDS011;43284;47.042;15.498;2023-07-13T12:37:56;3.92;;;1.10;;
57441;SDS011;43284;47.042;15.498;2023-07-13T12:40:32;1.90;;;1.15;;
57441;SDS011;43284;47.042;15.498;2023-07-13T12:42:59;2.65;;;1.38;;
57441;SDS011;43284;47.042;15.498;2023-07-13T12:45:29;2.70;;;1.13;;
57441;SDS011;43284;47.042;15.498;2023-07-13T12:47:56;1.90;;;1.63;;
57441;SDS011;43284;47.042;15.498;2023-07-13T12:50:28;3.58;;;1.50;;
57441;SDS011;43284;47.042;15.498;2023-07-13T12:53:03;2.58;;;1.45;;
57441;SDS011;43284;47.042;15.498;2023-07-13T12:55:39;3.25;;;1.20;;
57441;SDS011;43284;47.042;15.498;2023-07-13T12:58:20;2.05;;;1.40;;
57441;SDS011;43284;47.042;15.498;2023-07-13T13:00:50;2.67;;;1.35;;
57441;SDS011;43284;47.042;15.498;2023-07-13T13:05:47;0.80;;;0.80;;
57441;SDS011;43284;47.042;15.498;2023-07-13T13:08:13;5.97;;;1.42;;
57441;SDS011;43284;47.042;15.498;2023-07-13T13:10:39;2.28;;;1.40;;
57441;SDS011;43284;47.042;15.498;2023-07-13T13:13:04;2.22;;;0.98;;
57441;SDS011;43284;47.042;15.498;2023-07-13T13:15:30;2.42;;;1.00;;
57441;SDS011;43284;47.042;15.498;2023-07-13T13:17:56;1.60;;;1.10;;
57441;SDS011;43284;47.042;15.498;2023-07-13T13:20:24;1.67;;;1.17;;
57441;SDS011;43284;47.042;15.498;2023-07-13T13:22:50;2.38;;;1.17;;
57441;SDS011;43284;47.042;15.498;2023-07-13T13:25:16;1.60;;;1.02;;
57441;SDS011;43284;47.042;15.498;2023-07-13T13:27:43;2.35;;;1.30;;
57441;SDS011;43284;47.042;15.498;2023-07-13T13:30:16;2.30;;;1.30;;
57441;SDS011;43284;47.042;15.498;2023-07-13T13:32:44;4.55;;;1.35;;
57441;SDS011;43284;47.042;15.498;2023-07-13T13:35:14;2.00;;;1.30;;
57441;SDS011;43284;47.042;15.498;2023-07-13T13:37:42;2.22;;;1.17;;
57441;SDS011;43284;47.042;15.498;2023-07-13T13:40:15;2.33;;;1.23;;
57441;SDS011;43284;47.042;15.498;2023-07-13T13:42:43;2.38;;;1.45;;
57441;SDS011;43284;47.042;15.498;2023-07-13T13:45:09;3.33;;;1.30;;
57441;SDS011;43284;47.042;15.498;2023-07-13T13:47:35;2.63;;;1.70;;
57441;SDS011;43284;47.042;15.498;2023-07-13T13:50:05;4.72;;;1.30;;
57441;SDS011;43284;47.042;15.498;2023-07-13T13:52:40;1.98;;;1.27;;
57441;SDS011;43284;47.042;15.498;2023-07-13T13:55:16;2.60;;;1.33;;
57441;SDS011;43284;47.042;15.498;2023-07-13T13:57:45;5.28;;;1.55;;
57441;SDS011;43284;47.042;15.498;2023-07-13T14:00:12;2.10;;;1.40;;
57441;SDS011;43284;47.042;15.498;2023-07-13T14:02:39;4.03;;;1.60;;
57441;SDS011;43284;47.042;15.498;2023-07-13T14:05:10;2.15;;;1.52;;
57441;SDS011;43284;47.042;15.498;2023-07-13T14:07:37;3.30;;;1.10;;
57441;SDS011;43284;47.042;15.498;2023-07-13T14:10:11;3.45;;;1.27;;
57441;SDS011;43284;47.042;15.498;2023-07-13T14:12:40;2.05;;;1.30;;
57441;SDS011;43284;47.042;15.498;2023-07-13T14:15:42;2.80;;;1.55;;
57441;SDS011;43284;47.042;15.498;2023-07-13T14:18:01;2.03;;;1.15;;
57441;SDS011;43284;47.042;15.498;2023-07-13T14:20:26;3.22;;;1.10;;
57441;SDS011;43284;47.042;15.498;2023-07-13T14:22:52;1.00;;;0.93;;
57441;SDS011;43284;47.042;15.498;2023-07-13T14:25:18;1.33;;;0.75;;
57441;SDS011;43284;47.042;15.498;2023-07-13T14:27:45;2.92;;;1.00;;
57441;SDS011;43284;47.042;15.498;2023-07-13T14:30:14;1.00;;;0.82;;
57441;SDS011;43284;47.042;15.498;2023-07-13T14:32:45;4.60;;;2.25;;
57441;SDS011;43284;47.042;15.498;2023-07-13T14:35:12;1.15;;;1.05;;
57441;SDS011;43284;47.042;15.498;2023-07-13T14:37:41;1.10;;;1.00;;
57441;SDS011;43284;47.042;15.498;2023-07-13T14:40:16;0.80;;;0.70;;
57441;SDS011;43284;47.042;15.498;2023-07-13T14:42:44;0.90;;;0.80;;
57441;SDS011;43284;47.042;15.498;2023-07-13T14:45:17;1.60;;;0.90;;
57441;SDS011;43284;47.042;15.498;2023-07-13T14:47:44;2.33;;;0.98;;
57441;SDS011;43284;47.042;15.498;2023-07-13T14:50:14;1.13;;;0.60;;
57441;SDS011;43284;47.042;15.498;2023-07-13T14:52:41;1.02;;;0.68;;
57441;SDS011;43284;47.042;15.498;2023-07-13T14:55:11;2.08;;;0.60;;
57441;SDS011;43284;47.042;15.498;2023-07-13T14:57:38;1.10;;;0.80;;
57441;SDS011;43284;47.042;15.498;2023-07-13T15:00:04;3.40;;;1.00;;
57441;SDS011;43284;47.042;15.498;2023-07-13T15:02:37;1.10;;;1.00;;
57441;SDS011;43284;47.042;15.498;2023-07-13T15:05:26;1.15;;;0.90;;
57441;SDS011;43284;47.042;15.498;2023-07-13T15:07:52;1.83;;;0.90;;
57441;SDS011;43284;47.042;15.498;2023-07-13T15:10:25;3.35;;;1.00;;
57441;SDS011;43284;47.042;15.498;2023-07-13T15:13:18;4.40;;;0.90;;
57441;SDS011;43284;47.042;15.498;2023-07-13T15:15:43;3.22;;;1.38;;
57441;SDS011;43284;47.042;15.498;2023-07-13T15:18:13;2.60;;;0.70;;